Time;durP1;ratioP1;P1;durP2;ratioP2;P2;SDS_P1;SDS_P2;PMS_P1;PMS_P2;Temp;Humidity;BMP_temperature;BMP_pressure;BME280_temperature;BME280_humidity;BME280_pressure;Samples;Min_cycle;Max_cycle;Signal;HPM_P1;HPM_P2
2023/03/09 00:01:33;;;;;;;2.70;1.30;;;;;;;9.45;100.00;95712.50;5034249;28;20204;-82
2023/03/09 00:04:01;;;;;;;1.97;1.37;;;;;;;9.47;100.00;95693.84;5034116;28;20211;-82
2023/03/09 00:06:28;;;;;;;3.67;1.47;;;;;;;9.42;100.00;95699.59;5033451;28;20259;-82
2023/03/09 00:08:55;;;;;;;3.00;1.60;;;;;;;9.43;100.00;95698.63;5033738;28;20232;-82
2023/03/09 00:11:21;;;;;;;3.33;1.70;;;;;;;9.50;100.00;95693.56;5033695;28;20210;-82
2023/03/09 00:13:49;;;;;;;3.67;1.50;;;;;;;9.51;100.00;95705.75;5033678;28;20211;-82
2023/03/09 00:16:19;;;;;;;3.10;1.50;;;;;;;9.52;100.00;95723.22;5033055;28;20231;-83
2023/03/09 00:18:46;;;;;;;4.17;1.70;;;;;;;9.52;100.00;95733.75;5033465;28;20242;-82
2023/03/09 00:21:34;;;;;;;4.17;1.73;;;;;;;9.51;100.00;95740.03;5033542;28;20235;-82
2023/03/09 00:24:01;;;;;;;3.27;1.90;;;;;;;9.54;100.00;95755.53;5033392;28;20274;-82
2023/03/09 00:26:27;;;;;;;3.07;1.80;;;;;;;9.55;100.00;95765.09;5032754;28;20220;-82
2023/03/09 00:28:54;;;;;;;3.43;1.93;;;;;;;9.67;100.00;95775.19;5033591;28;20231;-82
2023/03/09 00:31:21;;;;;;;4.33;1.77;;;;;;;9.75;100.00;95787.59;5033808;28;20205;-82
2023/03/09 00:33:49;;;;;;;2.33;1.33;;;;;;;9.89;100.00;95784.38;5033909;28;20263;-82
2023/03/09 00:36:16;;;;;;;3.80;1.40;;;;;;;9.84;100.00;95791.94;5032792;28;20204;-83
2023/03/09 00:38:42;;;;;;;3.80;1.40;;;;;;;9.87;100.00;95807.44;5033521;28;20216;-82
2023/03/09 00:41:09;;;;;;;2.90;1.50;;;;;;;9.85;100.00;95817.34;5033859;28;20269;-83
2023/03/09 00:43:35;;;;;;;3.27;1.53;;;;;;;9.78;100.00;95813.69;5033816;28;20209;-83
2023/03/09 00:46:02;;;;;;;1.53;1.30;;;;;;;9.73;100.00;95821.22;5033379;28;20213;-83
2023/03/09 00:48:30;;;;;;;2.23;1.40;;;;;;;9.72;100.00;95830.13;5032894;28;20216;-84
2023/03/09 00:50:56;;;;;;;2.20;1.30;;;;;;;9.70;100.00;95838.19;5047538;22;20240;-82
2023/03/09 00:53:23;;;;;;;1.33;1.23;;;;;;;9.70;100.00;95838.19;5032768;28;20216;-82
2023/03/09 00:55:50;;;;;;;3.33;1.13;;;;;;;9.70;100.00;95827.66;5032656;28;20237;-82
2023/03/09 00:58:16;;;;;;;1.70;1.17;;;;;;;9.65;100.00;95829.06;5031997;28;20213;-82
2023/03/09 01:00:43;;;;;;;2.50;1.30;;;;;;;9.62;100.00;95816.22;5032021;28;20247;-82
2023/03/09 01:03:09;;;;;;;1.10;0.80;;;;;;;9.59;100.00;95808.59;5032582;28;20219;-82
2023/03/09 01:05:38;;;;;;;2.80;1.13;;;;;;;9.55;100.00;95817.84;5032524;28;20212;-82
2023/03/09 01:08:04;;;;;;;1.83;0.80;;;;;;;9.52;100.00;95826.03;5031651;28;20224;-83
2023/03/09 01:10:31;;;;;;;1.10;0.80;;;;;;;9.54;100.00;95821.47;5032578;28;20232;-83
2023/03/09 01:12:57;;;;;;;2.53;1.00;;;;;;;9.52;100.00;95826.03;5032572;28;20209;-81
2023/03/09 01:15:24;;;;;;;0.60;0.60;;;;;;;9.50;100.00;95817.47;5032442;28;20211;-82
2023/03/09 01:17:50;;;;;;;0.57;0.57;;;;;;;9.55;100.00;95812.56;5031772;28;20216;-81
2023/03/09 01:20:17;;;;;;;0.80;0.63;;;;;;;9.52;100.00;95824.25;5032443;28;20236;-81
2023/03/09 01:22:45;;;;;;;0.93;0.60;;;;;;;9.48;100.00;95812.34;5032271;28;20262;-82
2023/03/09 01:25:12;;;;;;;1.27;0.50;;;;;;;9.45;100.00;95823.22;5032401;28;20216;-81
2023/03/09 01:27:38;;;;;;;1.70;0.40;;;;;;;9.40;100.00;95807.03;5031439;28;20314;-81
2023/03/09 01:30:06;;;;;;;0.50;0.50;;;;;;;9.30;100.00;95808.13;5032278;28;20231;-81
2023/03/09 01:32:33;;;;;;;0.60;0.40;;;;;;;9.23;100.00;95817.63;5032137;28;20268;-81
2023/03/09 01:34:59;;;;;;;0.40;0.40;;;;;;;9.19;100.00;95816.25;5031872;28;20736;-81
2023/03/09 01:37:26;;;;;;;0.50;0.40;;;;;;;9.18;100.00;95840.97;5031487;28;20308;-81
2023/03/09 01:39:54;;;;;;;0.97;0.50;;;;;;;9.16;100.00;95842.91;5031819;28;20243;-81
2023/03/09 01:42:20;;;;;;;0.20;0.20;;;;;;;9.15;100.00;95851.78;5032201;28;20215;-81
2023/03/09 01:45:12;;;;;;;0.77;0.40;;;;;;;9.15;100.00;95846.53;5031893;28;20233;-82
2023/03/09 01:47:39;;;;;;;0.50;0.50;;;;;;;9.13;100.00;95843.22;5031070;28;20220;-82
2023/03/09 01:50:06;;;;;;;0.90;0.40;;;;;;;9.07;100.00;95838.56;5031675;28;20374;-82
2023/03/09 01:52:34;;;;;;;1.90;0.40;;;;;;;8.97;100.00;95841.28;5031679;28;20682;-82
2023/03/09 01:55:06;;;;;;;0.50;0.40;;;;;;;8.97;100.00;95837.81;5031747;28;20215;-89
2023/03/09 01:57:36;;;;;;;0.60;0.53;;;;;;;8.99;100.00;95851.69;5031034;28;20209;-81
2023/03/09 02:00:07;;;;;;;0.53;0.40;;;;;;;9.04;100.00;95867.84;5029046;28;20232;-82
2023/03/09 02:02:37;;;;;;;1.67;0.40;;;;;;;9.07;100.00;95871.00;5028879;28;20709;-82
2023/03/09 02:05:08;;;;;;;1.33;0.53;;;;;;;9.16;100.00;95871.88;5031278;28;20209;-82
2023/03/09 02:07:38;;;;;;;1.00;0.40;;;;;;;9.15;100.00;95862.34;5030825;28;20509;-82
2023/03/09 02:10:11;;;;;;;1.23;0.50;;;;;;;9.08;100.00;95841.06;5031611;28;20224;-81
2023/03/09 02:12:40;;;;;;;1.07;0.40;;;;;;;9.08;100.00;95850.75;5031091;28;20213;-82
2023/03/09 02:15:07;;;;;;;0.43;0.43;;;;;;;9.01;100.00;95837.34;5031454;28;20220;-81
2023/03/09 02:17:34;;;;;;;1.27;0.40;;;;;;;8.95;100.00;95831.88;5030467;28;20202;-82
2023/03/09 02:20:14;;;;;;;0.30;0.30;;;;;;;8.96;100.00;95836.16;5031211;28;20234;-81
2023/03/09 02:22:42;;;;;;;0.50;0.50;;;;;;;9.05;100.00;95840.53;5031207;28;20297;-81
2023/03/09 02:25:19;;;;;;;1.43;0.43;;;;;;;9.06;100.00;95837.72;5031136;28;20210;-81
2023/03/09 02:27:48;;;;;;;1.37;0.50;;;;;;;9.14;100.00;95844.88;5030700;28;20209;-81
2023/03/09 02:30:15;;;;;;;0.43;0.40;;;;;;;9.18;100.00;95840.97;5030981;28;20605;-81
2023/03/09 02:32:41;;;;;;;0.40;0.40;;;;;;;9.17;100.00;95841.94;5031248;28;20697;-81
2023/03/09 02:35:09;;;;;;;0.57;0.30;;;;;;;9.23;100.00;95843.97;5033454;28;20210;-82
2023/03/09 02:37:38;;;;;;;0.30;0.30;;;;;;;9.23;100.00;95828.16;5033681;28;20213;-81
2023/03/09 02:40:12;;;;;;;0.33;0.30;;;;;;;9.20;100.00;95829.28;5032115;28;20236;-81
2023/03/09 02:42:39;;;;;;;1.70;0.30;;;;;;;9.23;100.00;95826.34;5032657;28;20216;-82
2023/03/09 02:45:08;;;;;;;0.30;0.30;;;;;;;9.24;100.00;95819.28;5031394;28;20215;-82
2023/03/09 02:47:36;;;;;;;0.37;0.30;;;;;;;9.25;100.00;95820.91;5030644;28;20238;-82
2023/03/09 02:50:02;;;;;;;0.30;0.30;;;;;;;9.27;100.00;95834.75;5030760;28;20235;-82
2023/03/09 02:52:29;;;;;;;0.80;0.30;;;;;;;9.28;100.00;95834.63;5031019;28;20231;-81
2023/03/09 02:54:55;;;;;;;1.03;0.30;;;;;;;9.25;100.00;95847.28;5031205;28;20220;-82
2023/03/09 02:57:22;;;;;;;0.57;0.40;;;;;;;9.24;100.00;95869.34;5030193;28;20227;-81
2023/03/09 02:59:48;;;;;;;0.40;0.30;;;;;;;9.20;100.00;95873.25;5030875;28;20238;-81
2023/03/09 03:02:16;;;;;;;0.87;0.30;;;;;;;9.17;100.00;95878.84;5030706;28;20207;-81
2023/03/09 03:04:43;;;;;;;0.30;0.30;;;;;;;9.17;100.00;95884.91;5030836;28;20564;-82
2023/03/09 03:07:09;;;;;;;1.17;0.40;;;;;;;9.19;100.00;95900.59;5030271;28;20237;-81
2023/03/09 03:09:36;;;;;;;0.40;0.40;;;;;;;9.22;100.00;95905.53;5030797;28;20247;-81
2023/03/09 03:12:02;;;;;;;0.40;0.40;;;;;;;9.23;100.00;95918.56;5030762;28;20208;-81
2023/03/09 03:14:29;;;;;;;0.53;0.33;;;;;;;9.29;100.00;95920.59;5030906;28;20293;-81
2023/03/09 03:16:55;;;;;;;0.40;0.40;;;;;;;9.32;100.00;95935.28;5030095;28;20218;-81
2023/03/09 03:19:24;;;;;;;0.73;0.30;;;;;;;9.31;100.00;95967.91;5031038;28;20232;-82
2023/03/09 03:21:51;;;;;;;0.40;0.40;;;;;;;9.32;100.00;95964.28;5030737;28;20310;-81
2023/03/09 03:24:17;;;;;;;1.10;0.50;;;;;;;9.33;100.00;96002.84;5032093;28;20221;-81
2023/03/09 03:26:44;;;;;;;0.40;0.30;;;;;;;9.30;100.00;96005.78;5033822;28;20238;-82
2023/03/09 03:29:10;;;;;;;0.83;0.30;;;;;;;9.31;100.00;96025.88;5034474;28;20594;-81
2023/03/09 03:31:37;;;;;;;1.03;0.40;;;;;;;9.20;100.00;96023.47;5034274;28;20210;-81
2023/03/09 03:34:04;;;;;;;0.30;0.30;;;;;;;9.09;100.00;96028.94;5034723;28;20212;-81
2023/03/09 03:36:31;;;;;;;0.50;0.40;;;;;;;8.99;100.00;96025.53;5033660;28;20205;-82
2023/03/09 03:38:58;;;;;;;0.50;0.40;;;;;;;8.96;100.00;96024.03;5034450;28;20224;-82
2023/03/09 03:41:24;;;;;;;2.50;0.50;;;;;;;8.94;100.00;96028.59;5034286;28;20236;-82
2023/03/09 03:43:51;;;;;;;1.93;0.50;;;;;;;8.90;100.00;96027.25;5034282;28;20239;-81
2023/03/09 03:46:17;;;;;;;2.07;0.70;;;;;;;8.91;100.00;96033.34;5033305;28;20212;-82
2023/03/09 03:48:44;;;;;;;1.67;0.50;;;;;;;8.87;100.00;96048.59;5034119;28;20646;-81
2023/03/09 03:51:10;;;;;;;0.60;0.50;;;;;;;8.85;100.00;96039.19;5033848;28;20238;-82
2023/03/09 03:53:38;;;;;;;1.53;0.60;;;;;;;8.84;100.00;96050.69;5034251;28;20208;-82
2023/03/09 03:56:05;;;;;;;3.33;0.77;;;;;;;8.82;100.00;96050.03;5034048;28;20537;-81
2023/03/09 03:58:32;;;;;;;1.10;0.70;;;;;;;8.88;100.00;96057.34;5033147;28;20209;-81
2023/03/09 04:00:58;;;;;;;1.03;0.60;;;;;;;8.89;100.00;96053.72;5033976;28;20240;-81
2023/03/09 04:03:25;;;;;;;3.40;1.00;;;;;;;8.91;100.00;96062.31;5033984;28;20216;-82
2023/03/09 04:05:51;;;;;;;1.50;0.77;;;;;;;8.88;100.00;96068.69;5033725;28;20220;-81
2023/03/09 04:08:18;;;;;;;1.70;0.80;;;;;;;8.87;100.00;96079.41;5033142;28;20589;-82
2023/03/09 04:10:45;;;;;;;2.80;0.67;;;;;;;8.90;100.00;96081.72;5033624;28;20222;-81
2023/03/09 04:13:12;;;;;;;2.63;1.30;;;;;;;8.95;100.00;96076.84;5033717;28;20830;-81
2023/03/09 04:15:38;;;;;;;1.97;0.70;;;;;;;8.94;100.00;96091.81;5033732;28;20219;-81
2023/03/09 04:18:06;;;;;;;2.80;0.80;;;;;;;8.93;100.00;96099.88;5032950;28;20581;-81
2023/03/09 04:20:33;;;;;;;4.70;0.97;;;;;;;8.96;100.00;96104.84;5033327;28;20236;-81
2023/03/09 04:23:00;;;;;;;4.63;1.37;;;;;;;8.91;100.00;96125.53;5033575;28;20215;-81
2023/03/09 04:25:26;;;;;;;4.33;0.83;;;;;;;8.89;100.00;96136.22;5033450;28;20209;-81
2023/03/09 04:27:56;;;;;;;2.97;0.93;;;;;;;8.92;100.00;96141.19;5032634;28;20204;-81
2023/03/09 04:30:23;;;;;;;4.07;1.20;;;;;;;8.91;100.00;96143.97;5033153;28;20736;-81
2023/03/09 04:32:49;;;;;;;5.37;1.53;;;;;;;8.90;100.00;96152.84;5033463;28;20211;-81
2023/03/09 04:35:17;;;;;;;4.93;1.23;;;;;;;8.89;100.00;96156.47;5032269;28;20205;-81
2023/03/09 04:37:44;;;;;;;3.57;1.10;;;;;;;8.91;100.00;96151.88;5032294;28;20265;-81
2023/03/09 04:40:12;;;;;;;5.00;1.57;;;;;;;8.90;100.00;96173.91;5033159;28;20278;-81
2023/03/09 04:42:38;;;;;;;6.67;1.47;;;;;;;8.85;100.00;96181.41;5033106;28;20247;-81
2023/03/09 04:45:07;;;;;;;4.67;1.30;;;;;;;8.87;100.00;96180.28;5033305;28;20232;-81
2023/03/09 04:47:34;;;;;;;2.63;1.07;;;;;;;8.91;100.00;96197.50;5032198;28;20663;-81
2023/03/09 04:50:00;;;;;;;6.87;1.53;;;;;;;8.86;100.00;96204.13;5032843;28;20244;-81
2023/03/09 04:52:27;;;;;;;4.23;1.60;;;;;;;8.87;100.00;96200.56;5033056;28;20231;-81
2023/03/09 04:54:54;;;;;;;9.20;2.03;;;;;;;8.88;100.00;96205.66;5032930;28;20235;-81
2023/03/09 04:57:21;;;;;;;4.20;1.57;;;;;;;8.89;100.00;96214.41;5032433;28;20215;-81
2023/03/09 04:59:47;;;;;;;5.40;1.70;;;;;;;8.91;100.00;96207.19;5032899;28;20576;-81
2023/03/09 05:02:15;;;;;;;3.70;1.20;;;;;;;8.91;100.00;96217.72;5032778;28;20232;-81
2023/03/09 05:04:42;;;;;;;5.43;1.77;;;;;;;8.85;100.00;96219.13;5032838;28;20266;-81
2023/03/09 05:07:08;;;;;;;4.77;1.73;;;;;;;8.86;100.00;96225.22;5032060;28;20207;-81
2023/03/09 05:09:35;;;;;;;4.50;1.67;;;;;;;8.79;100.00;96224.13;5032613;28;20231;-81
2023/03/09 05:12:01;;;;;;;5.80;1.73;;;;;;;8.78;100.00;96222.47;5032471;28;20218;-80
2023/03/09 05:14:29;;;;;;;6.00;1.50;;;;;;;8.78;100.00;96233.00;5032667;28;20670;-81
2023/03/09 05:16:56;;;;;;;7.27;1.40;;;;;;;8.78;100.00;96238.25;5031910;28;20283;-81
2023/03/09 05:19:24;;;;;;;4.80;1.53;;;;;;;8.77;100.00;96244.50;5032474;28;20231;-81
2023/03/09 05:21:50;;;;;;;5.30;1.50;;;;;;;8.70;100.00;96259.22;5032382;28;20262;-81
2023/03/09 05:24:17;;;;;;;5.63;2.20;;;;;;;8.61;100.00;96257.41;5032347;28;20216;-80
2023/03/09 05:26:43;;;;;;;5.97;1.90;;;;;;;8.58;100.00;96262.97;5031693;28;20244;-81
2023/03/09 05:29:10;;;;;;;5.83;1.97;;;;;;;8.54;100.00;96278.22;5032438;28;20216;-81
2023/03/09 05:31:36;;;;;;;4.50;1.50;;;;;;;8.56;100.00;96291.25;5032234;28;20205;-80
2023/03/09 05:34:03;;;;;;;3.90;1.43;;;;;;;8.55;100.00;96284.28;5032210;28;20214;-81
2023/03/09 05:36:31;;;;;;;4.17;1.60;;;;;;;8.58;100.00;96292.72;5031291;28;20209;-81
2023/03/09 05:38:57;;;;;;;3.43;1.37;;;;;;;8.70;100.00;96290.81;5032021;28;20223;-81
2023/03/09 05:41:24;;;;;;;4.73;1.37;;;;;;;8.85;100.00;96297.31;5031960;28;20695;-80
2023/03/09 05:43:51;;;;;;;4.87;1.77;;;;;;;8.94;100.00;96301.75;5032025;28;20220;-80
2023/03/09 05:46:18;;;;;;;3.07;1.70;;;;;;;8.98;100.00;96308.38;5031029;28;20222;-80
2023/03/09 05:48:47;;;;;;;7.17;1.97;;;;;;;9.00;100.00;96303.81;5031638;28;20216;-81
2023/03/09 05:51:14;;;;;;;6.07;1.40;;;;;;;9.01;100.00;96314.19;5031525;28;20764;-80
2023/03/09 05:53:41;;;;;;;4.47;1.50;;;;;;;8.92;100.00;96327.38;5032044;28;20211;-80
2023/03/09 05:56:08;;;;;;;4.77;1.90;;;;;;;8.81;100.00;96330.19;5031221;28;20245;-79
2023/03/09 05:58:35;;;;;;;8.10;2.20;;;;;;;8.75;100.00;96344.72;5031985;28;20580;-80
2023/03/09 06:01:02;;;;;;;7.63;1.80;;;;;;;8.76;100.00;96350.84;5031709;28;20236;-82
2023/03/09 06:03:29;;;;;;;8.37;2.20;;;;;;;8.82;100.00;96355.53;5031752;28;20235;-80
2023/03/09 06:05:59;;;;;;;5.37;2.27;;;;;;;8.93;100.00;96352.78;5031669;28;20209;-80
2023/03/09 06:08:29;;;;;;;4.93;1.70;;;;;;;9.03;100.00;96361.50;5031239;28;20259;-80
2023/03/09 06:10:59;;;;;;;6.17;2.00;;;;;;;8.98;100.00;96356.66;5031416;28;20227;-80
2023/03/09 06:13:26;;;;;;;6.77;1.60;;;;;;;8.86;100.00;96367.44;5031657;28;20204;-81
2023/03/09 06:15:53;;;;;;;7.03;1.97;;;;;;;8.73;100.00;96378.28;5031366;28;20205;-80
2023/03/09 06:18:20;;;;;;;8.50;1.70;;;;;;;8.76;100.00;96377.16;5030811;28;20222;-80
2023/03/09 06:20:47;;;;;;;6.47;1.80;;;;;;;8.82;100.00;96376.63;5031510;28;20285;-80
2023/03/09 06:23:14;;;;;;;7.77;1.53;;;;;;;8.83;100.00;96379.13;5031373;28;20258;-80
2023/03/09 06:25:41;;;;;;;5.73;1.77;;;;;;;8.88;100.00;96370.81;5031321;28;20351;-80
2023/03/09 06:28:09;;;;;;;8.37;2.10;;;;;;;8.92;100.00;96374.78;5030325;28;20212;-81
2023/03/09 06:30:39;;;;;;;4.20;1.40;;;;;;;8.96;100.00;96379.69;5031147;28;20718;-81
2023/03/09 06:33:05;;;;;;;4.93;1.77;;;;;;;9.01;100.00;96379.25;5031182;28;20237;-81
2023/03/09 06:35:31;;;;;;;5.23;1.77;;;;;;;9.01;100.00;96384.53;5031482;28;20216;-81
2023/03/09 06:38:00;;;;;;;6.80;1.87;;;;;;;9.04;100.00;96384.22;5030334;28;20210;-80
2023/03/09 06:40:29;;;;;;;4.97;1.50;;;;;;;9.11;100.00;96386.19;5030949;28;20236;-81
2023/03/09 06:42:56;;;;;;;4.17;1.43;;;;;;;9.13;100.00;96378.97;5030753;28;20238;-80
2023/03/09 06:45:24;;;;;;;5.97;2.07;;;;;;;9.15;100.00;96389.38;5030852;28;20211;-80
2023/03/09 06:47:54;;;;;;;5.57;1.57;;;;;;;9.15;100.00;96384.09;5030274;28;20212;-81
2023/03/09 06:50:20;;;;;;;4.53;1.33;;;;;;;9.17;100.00;96382.16;5045649;22;20236;-85
2023/03/09 06:52:47;;;;;;;6.27;1.60;;;;;;;9.16;100.00;96401.56;5031398;28;20593;-85
2023/03/09 06:55:14;;;;;;;6.40;1.93;;;;;;;9.08;100.00;96393.53;5031660;28;20238;-85
2023/03/09 06:57:40;;;;;;;6.03;1.70;;;;;;;9.11;100.00;96403.81;5033398;28;20225;-84
2023/03/09 07:00:09;;;;;;;4.10;2.00;;;;;;;9.10;100.00;96415.28;5037473;28;20229;-84
2023/03/09 07:02:37;;;;;;;8.63;1.77;;;;;;;9.12;100.00;96431.81;5045536;28;20240;-85
2023/03/09 07:05:04;;;;;;;6.23;1.97;;;;;;;9.15;100.00;96415.72;5036372;28;20212;-84
2023/03/09 07:07:31;;;;;;;4.77;1.50;;;;;;;9.22;100.00;96416.81;5035781;28;20208;-85
2023/03/09 07:09:58;;;;;;;6.57;1.83;;;;;;;9.22;100.00;96427.38;5036854;28;20239;-85
2023/03/09 07:12:24;;;;;;;5.33;1.53;;;;;;;9.32;100.00;96438.75;5049670;28;20716;-83
2023/03/09 07:14:51;;;;;;;7.77;1.70;;;;;;;9.52;100.00;96429.84;5052498;28;20212;-85
2023/03/09 07:17:17;;;;;;;4.23;1.60;;;;;;;9.67;98.13;96428.44;5048028;28;20209;-85
2023/03/09 07:19:46;;;;;;;4.80;1.53;;;;;;;9.74;97.83;96435.63;5053279;28;20234;-85
2023/03/09 07:22:13;;;;;;;6.53;1.50;;;;;;;9.77;96.80;96430.09;5050035;28;20748;-84
2023/03/09 07:24:39;;;;;;;5.07;1.63;;;;;;;9.83;98.16;96434.78;5048322;28;20231;-84
2023/03/09 07:27:07;;;;;;;5.53;1.60;;;;;;;9.90;97.76;96435.06;5046648;28;20212;-82
2023/03/09 07:29:34;;;;;;;4.70;1.40;;;;;;;10.02;96.79;96440.03;5050381;28;20213;-82
2023/03/09 07:32:02;;;;;;;6.07;1.50;;;;;;;10.11;95.61;96448.91;5052815;28;20246;-81
2023/03/09 07:34:29;;;;;;;6.97;1.50;;;;;;;10.14;95.30;96445.97;5052698;28;20230;-82
2023/03/09 07:36:57;;;;;;;6.10;1.63;;;;;;;10.29;96.34;96463.03;5038010;28;20211;-83
2023/03/09 07:39:23;;;;;;;5.23;1.20;;;;;;;10.37;97.25;96455.22;5033252;28;20216;-82
2023/03/09 07:41:50;;;;;;;4.87;1.40;;;;;;;10.47;98.31;96472.66;5033481;28;20243;-83
2023/03/09 07:44:16;;;;;;;5.37;1.50;;;;;;;10.62;98.80;96478.31;5035043;28;20215;-83
2023/03/09 07:46:43;;;;;;;4.13;1.10;;;;;;;10.82;98.07;96472.78;5033818;28;20219;-83
2023/03/09 07:49:10;;;;;;;5.40;1.50;;;;;;;11.00;96.38;96486.06;5032826;28;20212;-82
2023/03/09 07:51:39;;;;;;;4.13;1.40;;;;;;;11.11;92.95;96469.97;5032592;28;20250;-83
2023/03/09 07:54:08;;;;;;;4.93;1.37;;;;;;;11.21;86.01;96446.94;5034664;28;20215;-83
2023/03/09 07:56:35;;;;;;;3.70;1.30;;;;;;;11.40;85.46;96457.38;5033765;28;20234;-83
2023/03/09 07:59:02;;;;;;;4.43;1.20;;;;;;;11.45;83.63;96460.41;5034934;28;20218;-83
2023/03/09 08:01:28;;;;;;;5.67;1.43;;;;;;;11.50;82.74;96458.13;5034781;28;20237;-82
2023/03/09 08:03:55;;;;;;;5.40;1.27;;;;;;;11.52;81.96;96458.81;5034613;28;20208;-79
2023/03/09 08:06:21;;;;;;;5.03;1.40;;;;;;;11.52;81.17;96458.81;5033605;28;20536;-79
2023/03/09 08:08:48;;;;;;;6.67;1.77;;;;;;;11.51;82.20;96468.56;5033796;28;20212;-82
2023/03/09 08:11:17;;;;;;;5.27;1.60;;;;;;;11.50;82.64;96479.28;5031079;28;20229;-82
2023/03/09 08:13:43;;;;;;;6.23;2.00;;;;;;;11.46;84.59;96499.09;5033416;28;20215;-82
2023/03/09 08:16:12;;;;;;;5.07;1.60;;;;;;;11.50;85.38;96511.03;5033037;28;20280;-82
2023/03/09 08:18:38;;;;;;;2.53;1.17;;;;;;;11.54;81.84;96492.06;5032577;28;20705;-81
2023/03/09 08:21:06;;;;;;;5.17;1.70;;;;;;;11.59;81.32;96496.91;5022542;28;20231;-83
2023/03/09 08:23:33;;;;;;;3.60;1.30;;;;;;;11.54;79.85;96484.13;5033300;28;20233;-83
2023/03/09 08:26:00;;;;;;;4.87;1.10;;;;;;;11.53;81.25;96500.97;5032384;28;20295;-83
2023/03/09 08:28:28;;;;;;;2.77;1.33;;;;;;;11.46;82.23;96501.72;5032217;28;20585;-83
2023/03/09 08:30:54;;;;;;;3.33;1.00;;;;;;;11.40;81.01;96504.97;5032459;28;20224;-85
2023/03/09 08:33:21;;;;;;;4.23;1.17;;;;;;;11.47;82.84;96516.63;5032573;28;20205;-84
2023/03/09 08:35:47;;;;;;;4.07;1.40;;;;;;;11.57;82.97;96523.50;5033398;28;20204;-84
2023/03/09 08:38:14;;;;;;;4.80;1.53;;;;;;;11.62;81.82;96515.16;5031843;28;20215;-84
2023/03/09 08:40:41;;;;;;;6.57;1.17;;;;;;;11.63;81.29;96528.22;5033471;28;20746;-85
2023/03/09 08:43:07;;;;;;;4.03;1.00;;;;;;;11.58;81.23;96524.34;5033356;28;20239;-84
2023/03/09 08:45:35;;;;;;;4.93;1.10;;;;;;;11.56;83.25;96545.66;5032850;28;20444;-85
2023/03/09 08:48:02;;;;;;;3.37;1.17;;;;;;;11.51;81.71;96549.72;5032545;28;20209;-84
2023/03/09 08:50:29;;;;;;;4.87;1.40;;;;;;;11.46;83.31;96563.41;5033363;28;20690;-80
2023/03/09 08:52:55;;;;;;;5.00;1.20;;;;;;;11.46;82.22;96557.28;5031929;28;20211;-83
2023/03/09 08:55:22;;;;;;;8.20;1.30;;;;;;;11.47;86.20;96577.47;5032002;28;20314;-84
2023/03/09 08:57:48;;;;;;;5.07;1.47;;;;;;;11.48;86.08;96576.47;5032006;28;20212;-88
2023/03/09 09:00:16;;;;;;;4.40;1.27;;;;;;;11.53;85.61;96579.50;5030610;28;20251;-88
2023/03/09 09:02:44;;;;;;;2.77;0.77;;;;;;;11.46;85.02;96586.38;5032078;28;20243;-91
2023/03/09 09:05:10;;;;;;;3.33;1.05;;;;;;;11.39;85.79;96607.31;5033173;28;20437;-90
2023/03/09 09:07:37;;;;;;;3.07;1.00;;;;;;;11.33;86.18;96610.56;5033353;28;20259;-90
2023/03/09 09:10:04;;;;;;;3.37;0.80;;;;;;;11.26;88.41;96621.84;5035012;28;20229;-90
2023/03/09 09:12:32;;;;;;;3.00;1.00;;;;;;;11.24;87.62;96629.09;5033133;28;20438;-91
2023/03/09 09:14:59;;;;;;;2.60;0.93;;;;;;;11.32;88.12;96630.03;5032667;28;20455;-85
2023/03/09 09:17:25;;;;;;;3.50;1.10;;;;;;;11.32;90.62;96645.88;5029721;28;20217;-86
2023/03/09 09:19:53;;;;;;;3.97;0.90;;;;;;;11.47;92.50;96657.66;5031737;28;20233;-85
2023/03/09 09:22:20;;;;;;;2.10;0.80;;;;;;;11.65;90.48;96644.50;5030964;28;20236;-86
2023/03/09 09:24:46;;;;;;;3.17;1.07;;;;;;;11.68;89.50;96642.38;5030367;28;20218;-84
2023/03/09 09:27:13;;;;;;;4.27;1.10;;;;;;;11.55;91.61;96651.66;5021665;28;20587;-86
2023/03/09 09:29:39;;;;;;;2.23;0.90;;;;;;;11.55;91.43;96646.34;5032183;28;20545;-88
2023/03/09 09:32:06;;;;;;;2.10;1.00;;;;;;;11.49;90.18;96652.22;5030881;28;20215;-87
2023/03/09 09:34:34;;;;;;;2.50;1.30;;;;;;;11.49;92.20;96654.88;5032022;28;20302;-81
2023/03/09 09:37:05;;;;;;;3.53;0.77;;;;;;;11.52;90.42;96662.50;5031025;28;20217;-87
2023/03/09 09:39:32;;;;;;;2.50;0.70;;;;;;;11.60;90.22;96659.97;5030985;28;20612;-83
2023/03/09 09:42:01;;;;;;;4.93;1.30;;;;;;;11.70;90.51;96661.63;5031606;28;20219;-84
2023/03/09 09:44:33;;;;;;;1.90;0.80;;;;;;;11.80;91.47;96672.16;5031627;28;20225;-83
2023/03/09 09:47:04;;;;;;;1.47;0.60;;;;;;;11.93;90.03;96667.31;5029968;28;20215;-85
2023/03/09 09:49:35;;;;;;;2.37;0.90;;;;;;;12.02;92.47;96679.66;5032058;28;20224;-85
2023/03/09 09:52:13;;;;;;;4.77;1.00;;;;;;;12.14;90.55;96679.28;5043724;28;20704;-84
2023/03/09 09:54:47;;;;;;;4.53;0.93;;;;;;;12.10;90.91;96690.34;5050624;28;20208;-84
2023/03/09 09:57:17;;;;;;;1.67;0.70;;;;;;;12.20;87.03;96685.78;5050499;28;20210;-77
2023/03/09 09:59:52;;;;;;;2.73;0.70;;;;;;;12.21;85.78;96677.69;5051528;28;20325;-81
2023/03/09 10:02:38;;;;;;;2.10;0.80;;;;;;;12.06;85.67;96673.06;5050681;28;20209;-82
2023/03/09 10:05:13;;;;;;;1.20;0.50;;;;;;;12.15;86.88;96688.03;5051003;28;20217;-82
2023/03/09 10:07:41;;;;;;;3.20;0.70;;;;;;;12.23;88.39;96696.91;5050159;28;20214;-82
2023/03/09 10:10:17;;;;;;;3.33;0.90;;;;;;;12.14;87.54;96691.69;5050298;28;20228;-81
2023/03/09 10:12:45;;;;;;;2.90;0.83;;;;;;;12.19;88.41;96694.72;5050795;28;20730;-81
2023/03/09 10:15:16;;;;;;;2.00;0.70;;;;;;;12.15;86.49;96703.94;5050890;28;20769;-82
2023/03/09 10:17:46;;;;;;;2.47;0.87;;;;;;;12.03;86.52;96705.13;5049436;28;20231;-81
2023/03/09 10:20:26;;;;;;;1.13;0.73;;;;;;;12.12;89.16;96709.56;5051404;28;20228;-82
2023/03/09 10:22:56;;;;;;;2.07;1.03;;;;;;;12.00;88.61;96710.75;5051063;28;20216;-82
2023/03/09 10:25:25;;;;;;;3.80;0.70;;;;;;;11.98;89.57;96721.47;5049941;28;20200;-82
2023/03/09 10:27:56;;;;;;;1.80;1.03;;;;;;;11.91;89.85;96722.19;5021939;28;20283;-81
2023/03/09 10:30:36;;;;;;;2.70;0.80;;;;;;;11.89;90.05;96734.75;5010797;28;20565;-82
2023/03/09 10:33:07;;;;;;;3.03;0.90;;;;;;;11.75;89.84;96732.63;5010649;28;20216;-81
2023/03/09 10:35:42;;;;;;;2.43;0.60;;;;;;;11.65;89.52;96731.81;5010991;28;20251;-82
2023/03/09 10:38:13;;;;;;;1.43;0.80;;;;;;;11.55;90.83;96731.03;5010037;28;20220;-81
2023/03/09 10:40:43;;;;;;;2.73;0.73;;;;;;;11.61;89.45;96714.59;5009986;28;20274;-82
2023/03/09 10:43:17;;;;;;;1.77;0.80;;;;;;;11.76;88.27;96718.41;5010726;28;20262;-81
2023/03/09 10:45:44;;;;;;;3.63;1.37;;;;;;;12.03;90.56;96721.03;5010807;28;20213;-81
2023/03/09 10:48:21;;;;;;;0.90;0.63;;;;;;;12.25;87.89;96710.00;5009246;28;20216;-81
2023/03/09 10:50:57;;;;;;;1.67;0.70;;;;;;;12.18;83.18;96693.88;5009726;28;20342;-85
2023/03/09 10:53:31;;;;;;;1.47;0.70;;;;;;;12.24;85.33;96708.34;5011194;28;20213;-77
2023/03/09 10:56:05;;;;;;;1.80;0.80;;;;;;;12.60;85.87;96704.72;5011402;28;20234;-83
2023/03/09 10:58:31;;;;;;;1.20;0.70;;;;;;;13.03;85.62;96697.59;5010759;28;20209;-83
2023/03/09 11:01:02;;;;;;;5.03;1.30;;;;;;;13.34;83.04;96685.56;5011488;28;20231;-83
2023/03/09 11:03:36;;;;;;;1.67;0.70;;;;;;;13.57;82.21;96697.25;5011177;28;20283;-82
2023/03/09 11:06:23;;;;;;;1.80;0.70;;;;;;;13.65;81.32;96693.81;5011476;28;20223;-78
2023/03/09 11:09:08;;;;;;;2.40;0.90;;;;;;;13.65;80.95;96689.34;5011226;28;20220;-82
2023/03/09 11:11:34;;;;;;;3.07;0.90;;;;;;;13.78;79.26;96683.56;5011225;28;20232;-83
2023/03/09 11:14:01;;;;;;;2.80;1.10;;;;;;;13.82;74.97;96669.81;5011153;28;20205;-80
2023/03/09 11:16:34;;;;;;;3.67;1.13;;;;;;;13.75;75.01;96667.97;5010693;28;20338;-79
2023/03/09 11:19:13;;;;;;;2.70;0.80;;;;;;;13.58;73.82;96658.28;5011153;28;20718;-82
2023/03/09 11:21:51;;;;;;;3.20;0.90;;;;;;;13.53;75.14;96660.59;5011245;28;20261;-81
2023/03/09 11:24:22;;;;;;;1.67;1.00;;;;;;;13.35;74.28;96649.22;5011011;28;20230;-83
2023/03/09 11:26:54;;;;;;;2.63;0.80;;;;;;;13.40;74.47;96668.16;5010755;28;20191;-81
2023/03/09 11:29:29;;;;;;;2.47;0.90;;;;;;;13.31;75.71;96667.28;5011284;28;20217;-84
2023/03/09 11:31:56;;;;;;;3.10;0.83;;;;;;;13.43;76.60;96675.78;5011187;28;20213;-82
2023/03/09 11:34:27;;;;;;;1.60;0.80;;;;;;;13.48;74.49;96674.34;5011148;28;20201;-81
2023/03/09 11:36:59;;;;;;;3.67;1.10;;;;;;;13.43;73.96;96655.41;5011365;28;20215;-80
2023/03/09 11:39:33;;;;;;;3.13;0.80;;;;;;;13.32;72.04;96646.91;5012380;28;20703;-80